createdAt,value
2017-08-13T00:00:06.172Z,0
2017-08-13T00:02:36.711Z,0
2017-08-13T00:04:47.075Z,0
2017-08-13T00:07:11.001Z,0
2017-08-13T00:09:35.232Z,0
2017-08-13T00:11:59.197Z,0
2017-08-13T00:14:24.084Z,0
2017-08-13T00:16:48.031Z,0
2017-08-13T00:19:12.864Z,0
2017-08-13T00:21:36.749Z,0
2017-08-13T00:24:01.775Z,0
2017-08-13T00:26:27.684Z,0
2017-08-13T00:28:51.775Z,0
2017-08-13T00:31:17.812Z,0
2017-08-13T00:33:41.618Z,0
2017-08-13T00:36:05.556Z,0
2017-08-13T00:38:29.663Z,0
2017-08-13T00:44:38.146Z,0
2017-08-13T00:47:02.193Z,0
2017-08-13T00:49:26.124Z,0
2017-08-13T00:51:50.012Z,0
2017-08-13T00:54:20.563Z,0
2017-08-13T00:56:45.553Z,0
2017-08-13T00:59:09.479Z,0
2017-08-13T01:01:33.294Z,0
2017-08-13T01:03:57.125Z,0
2017-08-13T01:06:21.011Z,0
2017-08-13T01:08:45.965Z,0
2017-08-13T01:11:09.920Z,0
2017-08-13T01:13:36.189Z,0
2017-08-13T01:16:14.756Z,0
2017-08-13T01:18:40.761Z,0
2017-08-13T01:21:04.546Z,0
2017-08-13T01:23:28.380Z,0
2017-08-13T01:25:52.356Z,0
2017-08-13T01:28:14.501Z,0
2017-08-13T01:30:38.490Z,0
2017-08-13T01:33:03.523Z,0
2017-08-13T01:35:28.387Z,0
2017-08-13T01:37:58.991Z,0
2017-08-13T01:40:24.953Z,0
2017-08-13T01:42:35.363Z,0
2017-08-13T01:44:50.852Z,0
2017-08-13T01:47:16.812Z,0
2017-08-13T01:49:40.769Z,0
2017-08-13T01:52:04.871Z,0
2017-08-13T01:54:28.832Z,0
2017-08-13T01:56:52.703Z,0
2017-08-13T01:59:23.512Z,0
2017-08-13T02:01:47.343Z,0
2017-08-13T02:04:12.225Z,0
2017-08-13T02:06:43.695Z,0
2017-08-13T02:09:07.564Z,0
2017-08-13T02:11:30.867Z,0
2017-08-13T02:13:41.506Z,0
2017-08-13T02:16:05.381Z,0
2017-08-13T02:18:29.371Z,0
2017-08-13T02:20:54.374Z,0
2017-08-13T02:23:19.367Z,0
2017-08-13T02:25:43.341Z,0
2017-08-13T02:28:07.305Z,0
2017-08-13T02:30:32.228Z,0
2017-08-13T02:32:56.145Z,0
2017-08-13T02:35:26.645Z,0
2017-08-13T02:37:42.320Z,0
2017-08-13T02:40:06.003Z,0
2017-08-13T02:42:31.003Z,0
2017-08-13T02:44:48.520Z,0
2017-08-13T02:47:12.506Z,0
2017-08-13T02:49:37.518Z,0
2017-08-13T02:52:01.467Z,0
2017-08-13T02:54:25.500Z,0
2017-08-13T02:56:49.452Z,0
2017-08-13T02:59:13.439Z,0
2017-08-13T03:03:40.187Z,0
2017-08-13T03:06:04.171Z,0
2017-08-13T03:08:29.196Z,0
2017-08-13T03:10:53.153Z,0
2017-08-13T03:13:19.080Z,0
2017-08-13T03:15:43.347Z,0
2017-08-13T03:18:07.036Z,0
2017-08-13T03:20:31.935Z,0
2017-08-13T03:22:55.815Z,0
2017-08-13T03:25:11.277Z,0
2017-08-13T03:27:37.213Z,0
2017-08-13T03:30:01.106Z,0
2017-08-13T03:32:25.058Z,0
2017-08-13T03:34:49.988Z,0
2017-08-13T03:41:18.734Z,0
2017-08-13T03:43:42.630Z,0
2017-08-13T03:46:14.148Z,0
2017-08-13T03:48:37.945Z,0
2017-08-13T03:51:01.877Z,0
2017-08-13T03:53:25.883Z,4
2017-08-13T03:55:27.869Z,4
2017-08-13T03:57:52.853Z,4
2017-08-13T04:00:16.823Z,4
2017-08-13T04:04:19.191Z,8
2017-08-13T04:06:44.222Z,12
2017-08-13T04:09:08.193Z,12
2017-08-13T04:11:32.178Z,16
2017-08-13T04:13:42.549Z,16
2017-08-13T04:16:06.458Z,24
2017-08-13T04:18:32.542Z,28
2017-08-13T04:20:58.351Z,32
2017-08-13T04:23:23.373Z,32
2017-08-13T04:25:48.281Z,32
2017-08-13T04:28:12.120Z,40
2017-08-13T04:30:22.480Z,44
2017-08-13T04:32:46.468Z,48
2017-08-13T04:35:12.440Z,52
2017-08-13T04:39:12.688Z,60
2017-08-13T04:41:37.660Z,72
2017-08-13T04:43:48.018Z,68
2017-08-13T04:46:11.988Z,72
2017-08-13T04:48:35.971Z,72
2017-08-13T04:50:59.970Z,76
2017-08-13T04:53:23.940Z,80
2017-08-13T04:55:47.899Z,76
2017-08-13T04:58:11.870Z,84
2017-08-13T05:00:35.894Z,96
2017-08-13T05:03:00.884Z,128
2017-08-13T05:05:33.472Z,184
2017-08-13T05:07:57.394Z,264
2017-08-13T05:10:21.370Z,340
2017-08-13T05:12:45.415Z,368
2017-08-13T05:15:10.385Z,396
2017-08-13T05:17:34.365Z,356
2017-08-13T05:19:59.399Z,384
2017-08-13T05:22:29.917Z,404
2017-08-13T05:24:53.832Z,512
2017-08-13T05:27:18.788Z,548
2017-08-13T05:29:49.464Z,584
2017-08-13T05:32:04.954Z,516
2017-08-13T05:34:28.995Z,440
2017-08-13T05:36:53.087Z,384
2017-08-13T05:39:17.052Z,424
2017-08-13T05:41:43.430Z,488
2017-08-13T05:44:07.176Z,564
2017-08-13T05:46:38.919Z,640
2017-08-13T05:49:02.926Z,688
2017-08-13T05:51:33.442Z,720
2017-08-13T05:53:57.438Z,724
2017-08-13T05:56:21.493Z,712
2017-08-13T05:58:31.915Z,764
2017-08-13T06:02:58.804Z,892
2017-08-13T06:05:24.872Z,944
2017-08-13T06:07:48.883Z,996
2017-08-13T06:13:26.086Z,1140
2017-08-13T06:15:50.168Z,1116
2017-08-13T06:18:15.254Z,1216
2017-08-13T06:20:45.996Z,1124
2017-08-13T06:23:10.145Z,1160
2017-08-13T06:25:34.223Z,1256
2017-08-13T06:27:58.154Z,1364
2017-08-13T06:30:22.310Z,1460
2017-08-13T06:32:46.314Z,1892
2017-08-13T06:35:11.460Z,2700
2017-08-13T06:37:37.579Z,3700
2017-08-13T06:39:54.319Z,4464
2017-08-13T06:43:55.148Z,4196
2017-08-13T06:46:19.300Z,3052
2017-08-13T06:48:50.149Z,3400
2017-08-13T06:51:14.290Z,3328
2017-08-13T06:53:38.423Z,3176
2017-08-13T06:56:02.545Z,3588
2017-08-13T06:58:26.806Z,4784
2017-08-13T07:00:53.069Z,9700
2017-08-13T07:03:17.352Z,26144
2017-08-13T07:05:33.226Z,57792
2017-08-13T07:07:57.630Z,67168
2017-08-13T07:10:24.150Z,75680
2017-08-13T07:12:49.054Z,44864
2017-08-13T07:15:14.949Z,40864
2017-08-13T07:17:39.952Z,62496
2017-08-13T07:20:05.132Z,16832
2017-08-13T07:22:31.368Z,17504
2017-08-13T07:24:56.687Z,13480
2017-08-13T07:27:24.044Z,5320
2017-08-13T07:29:49.653Z,3096
2017-08-13T07:32:14.688Z,6108
2017-08-13T07:34:39.852Z,10484
2017-08-13T07:37:05.973Z,8868
2017-08-13T07:39:31.023Z,5068
2017-08-13T07:41:56.024Z,3888
2017-08-13T07:45:57.150Z,2888
2017-08-13T07:48:21.930Z,10152
2017-08-13T07:50:46.681Z,8132
2017-08-13T07:54:48.020Z,9620
2017-08-13T07:58:49.136Z,10108
2017-08-13T08:01:13.888Z,8972
2017-08-13T08:03:30.265Z,29152
2017-08-13T08:05:55.164Z,11824
2017-08-13T08:08:20.020Z,26240
2017-08-13T08:10:44.965Z,13652
2017-08-13T08:14:37.755Z,10212
2017-08-13T08:17:02.873Z,8488
2017-08-13T08:19:19.455Z,8868
2017-08-13T08:21:30.201Z,12972
2017-08-13T08:23:55.242Z,12152
2017-08-13T08:26:20.276Z,13252
2017-08-13T08:28:45.278Z,7380
2017-08-13T08:31:10.262Z,5648
2017-08-13T08:33:35.240Z,4660
2017-08-13T08:37:35.856Z,7572
2017-08-13T08:40:00.662Z,5444
2017-08-13T08:42:25.397Z,5520
2017-08-13T08:44:50.122Z,6796
2017-08-13T08:47:14.932Z,4948
2017-08-13T08:49:39.675Z,3728
2017-08-13T08:53:40.657Z,2388
2017-08-13T08:56:05.351Z,2076
2017-08-13T08:58:29.985Z,2092
2017-08-13T09:00:54.602Z,2016
2017-08-13T09:03:19.180Z,2684
2017-08-13T09:05:43.681Z,3036
2017-08-13T09:07:59.776Z,2568
2017-08-13T09:10:24.320Z,2140
2017-08-13T09:12:48.917Z,1924
2017-08-13T09:15:13.523Z,1636
2017-08-13T09:17:37.950Z,1704
2017-08-13T09:20:02.488Z,1540
2017-08-13T09:26:30.921Z,1340
2017-08-13T09:30:48.846Z,1264
2017-08-13T09:33:13.338Z,1384
2017-08-13T09:35:20.794Z,1396
2017-08-13T09:37:45.225Z,1276
2017-08-13T09:43:46.304Z,880
2017-08-13T09:46:02.233Z,776
2017-08-13T09:50:28.145Z,788
2017-08-13T09:52:52.587Z,900
2017-08-13T09:55:18.120Z,1008
2017-08-13T09:57:42.339Z,1248
2017-08-13T10:00:06.567Z,1484
2017-08-13T10:02:31.000Z,1360
2017-08-13T10:04:55.481Z,1688
2017-08-13T10:07:19.855Z,1720
2017-08-13T10:09:44.364Z,1456
2017-08-13T10:12:08.854Z,1132
2017-08-13T10:14:33.353Z,920
2017-08-13T10:18:51.374Z,1020
2017-08-13T10:21:15.806Z,1140
2017-08-13T10:23:40.171Z,1440
2017-08-13T10:26:04.562Z,1608
2017-08-13T10:28:28.973Z,1952
2017-08-13T10:30:53.449Z,2220
2017-08-13T10:33:17.966Z,2416
2017-08-13T10:35:42.696Z,2140
2017-08-13T10:40:15.995Z,1920
2017-08-13T10:42:43.509Z,2092
2017-08-13T10:47:09.697Z,2940
2017-08-13T10:49:34.726Z,3428
2017-08-13T10:52:01.741Z,3764
2017-08-13T10:54:32.660Z,4312
2017-08-13T10:56:57.478Z,4516
2017-08-13T10:59:22.657Z,4424
2017-08-13T11:01:47.308Z,4452
2017-08-13T11:04:12.218Z,4116
2017-08-13T11:06:22.352Z,3604
2017-08-13T11:08:47.093Z,3396
2017-08-13T11:11:11.821Z,3864
2017-08-13T11:13:36.578Z,3832
2017-08-13T11:17:37.522Z,4192
2017-08-13T11:19:48.170Z,4432
2017-08-13T11:22:04.556Z,5064
2017-08-13T11:24:29.272Z,4480
2017-08-13T11:26:54.002Z,4892
2017-08-13T11:29:18.733Z,4716
2017-08-13T11:31:43.489Z,4968
2017-08-13T11:34:08.235Z,5256
2017-08-13T11:36:32.990Z,4540
2017-08-13T11:40:29.893Z,4976
2017-08-13T11:42:40.012Z,4840
2017-08-13T11:45:04.810Z,4524
2017-08-13T11:47:29.606Z,4572
2017-08-13T11:49:54.356Z,4660
2017-08-13T11:52:19.148Z,4436
2017-08-13T11:54:35.445Z,5028
2017-08-13T11:58:55.505Z,3960
2017-08-13T12:01:06.173Z,3900
2017-08-13T12:05:07.328Z,3476
2017-08-13T12:09:08.536Z,3124
2017-08-13T12:11:33.328Z,3012
2017-08-13T12:13:58.123Z,2724
2017-08-13T12:16:22.877Z,2512
2017-08-13T12:18:47.640Z,2236
2017-08-13T12:21:12.374Z,2208
2017-08-13T12:23:23.003Z,2452
2017-08-13T12:25:56.346Z,2772
2017-08-13T12:28:21.045Z,2908
2017-08-13T12:30:45.717Z,2988
2017-08-13T12:33:10.373Z,3024
2017-08-13T12:39:12.752Z,3092
2017-08-13T12:41:37.466Z,2712
2017-08-13T12:45:42.217Z,2872
2017-08-13T12:48:06.922Z,3008
2017-08-13T12:50:31.602Z,2624
2017-08-13T12:52:56.280Z,2512
2017-08-13T12:55:20.932Z,2444
2017-08-13T12:57:45.643Z,2392
2017-08-13T13:00:10.338Z,2416
2017-08-13T13:04:11.508Z,2780
2017-08-13T13:06:36.245Z,2780
2017-08-13T13:09:01.974Z,2940
2017-08-13T13:11:26.634Z,2944
2017-08-13T13:21:44.404Z,3092
2017-08-13T13:24:11.056Z,3124
2017-08-13T13:33:36.387Z,2776
2017-08-13T13:37:36.889Z,3004
2017-08-13T13:40:05.007Z,3012
2017-08-13T13:42:29.587Z,2540
2017-08-13T13:44:54.593Z,2760
2017-08-13T13:47:19.324Z,2932
2017-08-13T13:49:35.623Z,3352
2017-08-13T13:52:00.338Z,2968
2017-08-13T13:54:27.189Z,2452
2017-08-13T13:56:52.049Z,2256
2017-08-13T13:59:16.837Z,1956
2017-08-13T14:01:41.670Z,1924
2017-08-13T14:04:06.343Z,2076
2017-08-13T14:06:31.135Z,2404
2017-08-13T14:08:55.877Z,2624
2017-08-13T14:11:21.638Z,3244
2017-08-13T14:13:46.407Z,2860
2017-08-13T14:16:12.249Z,2952
2017-08-13T14:18:37.073Z,2968
2017-08-13T14:21:01.847Z,2452
2017-08-13T14:23:28.752Z,2260
2017-08-13T14:25:53.496Z,2236
2017-08-13T14:28:18.238Z,2084
2017-08-13T14:30:43.000Z,1860
2017-08-13T14:33:08.803Z,1592
2017-08-13T14:35:42.214Z,1452
2017-08-13T14:38:06.942Z,1516
2017-08-13T14:40:31.686Z,1460
2017-08-13T14:42:56.416Z,1312
2017-08-13T14:45:12.652Z,1356
2017-08-13T14:47:37.333Z,1508
2017-08-13T14:50:02.098Z,1856
2017-08-13T14:52:18.293Z,1888
2017-08-13T14:54:57.763Z,1836
2017-08-13T14:57:22.378Z,1812
2017-08-13T14:59:55.742Z,1432
2017-08-13T15:02:20.370Z,1288
2017-08-13T15:04:44.999Z,1240
2017-08-13T15:07:09.651Z,1228
2017-08-13T15:09:34.259Z,1276
2017-08-13T15:11:50.425Z,1272
2017-08-13T15:14:15.067Z,1376
2017-08-13T15:16:48.709Z,1500
2017-08-13T15:19:13.352Z,1524
2017-08-13T15:21:37.979Z,1436
2017-08-13T15:24:02.631Z,1400
2017-08-13T15:26:27.266Z,1444
2017-08-13T15:28:51.935Z,1492
2017-08-13T15:31:16.601Z,1576
2017-08-13T15:33:41.240Z,1592
2017-08-13T15:36:21.725Z,1528
2017-08-13T15:38:32.359Z,1376
2017-08-13T15:40:34.485Z,1316
2017-08-13T15:42:59.104Z,1344
2017-08-13T15:45:23.708Z,1252
2017-08-13T15:47:48.278Z,1184
2017-08-13T15:50:12.846Z,1152
2017-08-13T15:52:37.426Z,1124
2017-08-13T15:55:01.960Z,1092
2017-08-13T15:57:33.233Z,1096
2017-08-13T15:59:57.684Z,1072
2017-08-13T16:02:22.153Z,1124
2017-08-13T16:04:46.663Z,1100
2017-08-13T16:06:57.208Z,1084
2017-08-13T16:09:21.663Z,1068
2017-08-13T16:11:46.082Z,1028
2017-08-13T16:15:46.265Z,988
2017-08-13T16:17:47.820Z,916
2017-08-13T16:19:55.409Z,880
2017-08-13T16:22:19.865Z,868
2017-08-13T16:24:44.334Z,880
2017-08-13T16:27:08.825Z,936
2017-08-13T16:29:33.307Z,788
2017-08-13T16:33:33.995Z,932
2017-08-13T16:35:58.404Z,952
2017-08-13T16:38:22.840Z,956
2017-08-13T16:42:49.204Z,984
2017-08-13T16:44:59.711Z,1080
2017-08-13T16:47:24.121Z,1136
2017-08-13T16:51:50.561Z,1192
2017-08-13T16:54:15.024Z,1256
2017-08-13T16:56:39.465Z,1312
2017-08-13T16:59:03.927Z,1388
2017-08-13T17:01:28.343Z,1412
2017-08-13T17:05:20.588Z,1376
2017-08-13T17:07:22.174Z,1332
2017-08-13T17:09:46.689Z,1292
2017-08-13T17:12:11.171Z,1204
2017-08-13T17:14:35.650Z,1156
2017-08-13T17:17:00.181Z,1148
2017-08-13T17:19:24.772Z,1116
2017-08-13T17:23:25.014Z,1072
2017-08-13T17:25:49.510Z,1016
2017-08-13T17:28:14.005Z,948
2017-08-13T17:30:38.466Z,896
2017-08-13T17:33:02.888Z,916
2017-08-13T17:35:18.880Z,896
2017-08-13T17:37:50.382Z,868
2017-08-13T17:40:14.839Z,832
2017-08-13T17:42:39.281Z,828
2017-08-13T17:45:03.772Z,804
2017-08-13T17:47:28.206Z,768
2017-08-13T17:49:53.625Z,784
2017-08-13T17:52:20.063Z,740
2017-08-13T17:56:21.479Z,708
2017-08-13T17:58:45.827Z,680
2017-08-13T18:01:10.198Z,656
2017-08-13T18:03:34.808Z,624
2017-08-13T18:06:15.966Z,588
2017-08-13T18:08:40.356Z,552
2017-08-13T18:11:04.732Z,512
2017-08-13T18:13:14.748Z,488
2017-08-13T18:15:39.111Z,464
2017-08-13T18:18:03.464Z,432
2017-08-13T18:20:27.756Z,392
2017-08-13T18:22:52.082Z,356
2017-08-13T18:25:16.380Z,320
2017-08-13T18:27:40.731Z,288
2017-08-13T18:31:42.068Z,232
2017-08-13T18:34:06.360Z,204
2017-08-13T18:36:22.260Z,168
2017-08-13T18:38:46.590Z,140
2017-08-13T18:41:02.438Z,112
2017-08-13T18:43:26.723Z,92
2017-08-13T18:46:00.144Z,68
2017-08-13T18:48:24.410Z,52
2017-08-13T18:50:48.688Z,36
2017-08-13T18:53:12.961Z,24
2017-08-13T18:55:37.253Z,16
2017-08-13T18:58:00.171Z,12
2017-08-13T19:00:24.499Z,8
2017-08-13T19:02:48.812Z,4
2017-08-13T19:05:13.117Z,4
2017-08-13T19:07:37.470Z,4
2017-08-13T19:10:01.747Z,0
2017-08-13T19:15:38.149Z,0
2017-08-13T19:18:02.437Z,0
2017-08-13T19:20:26.689Z,0
2017-08-13T19:22:50.952Z,0
2017-08-13T19:25:15.209Z,0
2017-08-13T19:27:39.433Z,0
2017-08-13T19:30:03.675Z,0
2017-08-13T19:32:34.927Z,0
2017-08-13T19:34:50.718Z,0
2017-08-13T19:37:14.904Z,0
2017-08-13T19:39:39.117Z,0
2017-08-13T19:42:03.581Z,0
2017-08-13T19:44:27.826Z,0
2017-08-13T19:46:54.249Z,0
2017-08-13T19:49:18.647Z,0
2017-08-13T19:53:18.544Z,0
2017-08-13T19:55:42.761Z,0
2017-08-13T19:58:06.939Z,0
2017-08-13T20:00:31.116Z,0
2017-08-13T20:02:55.297Z,0
2017-08-13T20:05:22.274Z,0
2017-08-13T20:09:22.597Z,0
2017-08-13T20:11:46.759Z,0
2017-08-13T20:14:10.919Z,0
2017-08-13T20:18:37.951Z,0
2017-08-13T20:21:02.131Z,0
2017-08-13T20:23:26.832Z,0
2017-08-13T20:25:53.102Z,0
2017-08-13T20:29:05.258Z,0
2017-08-13T20:31:29.420Z,0
2017-08-13T20:33:53.581Z,0
2017-08-13T20:36:17.777Z,0
2017-08-13T20:38:42.922Z,0
2017-08-13T20:41:07.070Z,0
2017-08-13T20:43:31.195Z,0
2017-08-13T20:45:56.426Z,0
2017-08-13T20:48:36.281Z,0
2017-08-13T20:51:00.436Z,0
2017-08-13T20:53:24.517Z,0
2017-08-13T20:55:48.669Z,0
2017-08-13T20:58:12.893Z,0
2017-08-13T21:00:39.143Z,0
2017-08-13T21:03:10.269Z,0
2017-08-13T21:05:34.463Z,0
2017-08-13T21:08:06.339Z,0
2017-08-13T21:10:30.490Z,0
2017-08-13T21:12:54.657Z,0
2017-08-13T21:15:18.793Z,0
2017-08-13T21:17:42.930Z,0
2017-08-13T21:20:07.025Z,0
2017-08-13T21:22:31.149Z,0
2017-08-13T21:24:55.268Z,0
2017-08-13T21:27:20.565Z,0
2017-08-13T21:31:20.465Z,0
2017-08-13T21:37:23.146Z,0
2017-08-13T21:41:48.720Z,0
2017-08-13T21:44:12.902Z,0
2017-08-13T21:46:22.853Z,0
2017-08-13T21:48:47.051Z,0
2017-08-13T21:51:11.133Z,0
2017-08-13T21:53:35.239Z,0
2017-08-13T21:55:59.322Z,0
2017-08-13T21:58:23.422Z,0
2017-08-13T22:00:47.573Z,0
2017-08-13T22:03:26.773Z,0
2017-08-13T22:05:50.884Z,0
2017-08-13T22:08:15.020Z,0
2017-08-13T22:10:30.653Z,0
2017-08-13T22:12:46.312Z,0
2017-08-13T22:15:10.482Z,0
2017-08-13T22:21:12.813Z,0
2017-08-13T22:23:53.664Z,0
2017-08-13T22:26:17.794Z,0
2017-08-13T22:28:41.930Z,0
2017-08-13T22:31:06.052Z,0
2017-08-13T22:33:32.177Z,0
2017-08-13T22:35:56.233Z,0
2017-08-13T22:38:20.353Z,0
2017-08-13T22:40:44.433Z,0
2017-08-13T22:43:08.543Z,0
2017-08-13T22:45:33.673Z,0
2017-08-13T22:47:57.872Z,0
2017-08-13T22:50:23.077Z,0
2017-08-13T22:52:47.190Z,0
2017-08-13T22:55:12.244Z,0
2017-08-13T22:57:27.896Z,0
2017-08-13T22:59:54.063Z,0
2017-08-13T23:03:54.510Z,0
2017-08-13T23:08:02.214Z,0
2017-08-13T23:10:26.333Z,0
2017-08-13T23:14:26.239Z,0
2017-08-13T23:18:52.172Z,0
2017-08-13T23:21:16.340Z,0
2017-08-13T23:23:40.412Z,0
2017-08-13T23:26:04.468Z,0
2017-08-13T23:28:28.617Z,0
2017-08-13T23:30:52.675Z,0
2017-08-13T23:33:16.751Z,0
2017-08-13T23:35:32.387Z,0
2017-08-13T23:37:56.515Z,0
2017-08-13T23:40:20.591Z,0
2017-08-13T23:42:44.688Z,0
2017-08-13T23:45:08.757Z,0
2017-08-13T23:47:32.931Z,0
2017-08-13T23:52:00.979Z,0
2017-08-13T23:54:24.997Z,0
2017-08-13T23:56:49.033Z,0
2017-08-13T23:59:15.144Z,0
